CheckWX is a tool to help pilots better visualize weather data.  It is not intended as a substitute for an official pre-flight weather briefing.

07:12:53 UTC

OMFJ METAR
Fujairah International Airport
United Arab Emirates
Current

1 hour ago

OMFJ 230600Z 16004KT 140V200 5000 HZ FEW020 25/19 Q1020 A3013
Observed
Feb-23 @ 06:00 UTC
Wind
  • 160° at 4 KTS
Visibility
5,000 meters
Flight Rules
MVFR
Conditions
Haze
Cloud Levels
  • Few at 2,000' AGL
Temperature
25°C / 77°F
Dewpoint
19°C / 66°F
Humidity
69%
Altimeter
30.12" Hg
Pressure
1019.92 hPa
Previous

2 hours ago

OMFJ 230500Z 22002KT 5000 HZ FEW020 24/20 Q1020 A3012
Observed
Feb-23 @ 05:00 UTC
Wind
  • 220° at 2 KTS
Visibility
5,000 meters
Flight Rules
MVFR
Conditions
Haze
Cloud Levels
  • Few at 2,000' AGL
Temperature
24°C / 75°F
Dewpoint
20°C / 68°F
Humidity
78%
Altimeter
30.12" Hg
Pressure
1019.92 hPa
Previous

3 hours ago

OMFJ 230400Z 31004KT 5000 HZ NSC 22/20 Q1020 A3012
Observed
Feb-23 @ 04:00 UTC
Wind
  • 310° at 4 KTS
Visibility
5,000 meters
Flight Rules
MVFR
Conditions
Haze
Cloud Levels
  • Clear skies
Temperature
22°C / 72°F
Dewpoint
20°C / 68°F
Humidity
88%
Altimeter
30.12" Hg
Pressure
1019.92 hPa